Terminal Aerodrome Forecast
Issued by NWS

Home | Current Version | Previous Version | Text Only | Print | Product List | Glossary On
Versions: 1 2 3 4 5 6 7 8 9 10 11 12 13 14 15 16 17 18 19
000
FTUS43 KLSX 282323
TAFUIN
TAF
KUIN 282323Z 2900/2924 19014G23KT P6SM BKN070
     FM290300 20013KT 4SM -SHRA VCTS BKN040CB
      TEMPO 2903/2906 VRB35KT 2SM TSRA BKN025CB
     FM290900 20011KT P6SM BKN080
     FM291800 21012KT P6SM BKN040 PROB30 2921/2924 P6SM TS BKN050CB=

USA.gov is the U.S. government's official web portal to all federal, state and local government web resources and services.